createdAt,value
2018-08-31T00:01:03.848Z,98169.54
2018-08-31T00:03:44.906Z,98167.05
2018-08-31T00:06:26.373Z,98173.20
2018-08-31T00:09:09.938Z,98175.88
2018-08-31T00:12:06.130Z,98183.55
2018-08-31T00:14:38.041Z,98186.27
2018-08-31T00:17:10.329Z,98190.27
2018-08-31T00:19:41.970Z,98187.60
2018-08-31T00:22:14.488Z,98180.44
2018-08-31T00:26:58.878Z,98179.11
2018-08-31T00:30:39.822Z,98176.27
2018-08-31T00:33:20.985Z,98178.60
2018-08-31T00:38:05.941Z,98180.94
2018-08-31T00:40:58.155Z,98196.77
2018-08-31T00:43:59.964Z,98202.78
2018-08-31T00:46:31.866Z,98212.11
2018-08-31T00:49:04.197Z,98229.95
2018-08-31T00:51:36.064Z,98243.56
2018-08-31T00:54:07.917Z,98245.94
2018-08-31T00:56:39.798Z,98244.61
2018-08-31T00:59:12.112Z,98241.23
2018-08-31T01:01:44.311Z,98244.06
2018-08-31T01:04:16.668Z,98256.59
2018-08-31T01:06:48.319Z,98262.21
2018-08-31T01:09:20.236Z,98254.22
2018-08-31T01:11:51.903Z,98252.71
2018-08-31T01:14:24.112Z,98252.39
2018-08-31T01:16:55.924Z,98250.22
2018-08-31T01:19:28.146Z,98261.09
2018-08-31T01:22:00.235Z,98272.25
2018-08-31T01:24:32.739Z,98282.40
2018-08-31T01:27:04.701Z,98283.41
2018-08-31T01:29:36.526Z,98278.25
2018-08-31T01:32:08.936Z,98280.91
2018-08-31T01:34:42.095Z,98293.23
2018-08-31T01:37:13.957Z,98298.05
2018-08-31T01:39:45.729Z,98290.23
2018-08-31T01:42:17.579Z,98290.56
2018-08-31T01:44:49.836Z,98303.22
2018-08-31T01:47:21.857Z,98294.73
2018-08-31T01:49:53.724Z,98285.91
2018-08-31T01:52:25.652Z,98281.74
2018-08-31T01:54:57.665Z,98279.25
2018-08-31T01:57:29.393Z,98273.09
2018-08-31T02:00:01.501Z,98284.98
2018-08-31T02:02:33.461Z,98294.63
2018-08-31T02:05:05.423Z,98303.13
2018-08-31T02:07:37.470Z,98305.61
2018-08-31T02:10:09.673Z,98323.42
2018-08-31T02:12:41.510Z,98325.91
2018-08-31T02:15:15.094Z,98336.57
2018-08-31T02:17:47.048Z,98347.34
2018-08-31T02:20:19.035Z,98352.34
2018-08-31T02:22:50.774Z,98351.55
2018-08-31T02:25:23.621Z,98356.22
2018-08-31T02:27:55.980Z,98362.50
2018-08-31T02:30:28.018Z,98366.49
2018-08-31T02:33:00.075Z,98367.88
2018-08-31T02:35:31.927Z,98368.88
2018-08-31T02:38:03.835Z,98369.87
2018-08-31T02:40:35.831Z,98371.03
2018-08-31T02:43:08.101Z,98369.87
2018-08-31T02:45:39.704Z,98361.39
2018-08-31T02:48:11.714Z,98369.70
2018-08-31T02:50:43.654Z,98369.87
2018-08-31T02:53:15.500Z,98373.88
2018-08-31T02:55:47.180Z,98376.70
2018-08-31T02:58:19.122Z,98368.05
2018-08-31T03:00:51.789Z,98370.22
2018-08-31T03:03:23.899Z,98370.22
2018-08-31T03:05:55.839Z,98371.23
2018-08-31T03:08:27.939Z,98373.18
2018-08-31T03:10:59.660Z,98369.05
2018-08-31T03:13:31.726Z,98374.22
2018-08-31T03:16:03.560Z,98364.56
2018-08-31T03:18:35.547Z,98371.85
2018-08-31T03:21:07.198Z,98372.71
2018-08-31T03:23:39.091Z,98374.72
2018-08-31T03:26:11.079Z,98382.20
2018-08-31T03:28:42.776Z,98389.87
2018-08-31T03:31:14.892Z,98388.20
2018-08-31T03:33:46.863Z,98394.86
2018-08-31T03:36:19.040Z,98406.83
2018-08-31T03:38:51.159Z,98405.84
2018-08-31T03:41:22.924Z,98409.51
2018-08-31T03:43:54.624Z,98413.67
2018-08-31T03:46:26.674Z,98404.86
2018-08-31T03:48:58.681Z,98408.68
2018-08-31T03:51:30.690Z,98411.80
2018-08-31T03:54:02.309Z,98417.00
2018-08-31T03:56:34.242Z,98420.66
2018-08-31T03:59:06.629Z,98425.16
2018-08-31T04:01:39.417Z,98425.16
2018-08-31T04:04:11.313Z,98427.98
2018-08-31T04:06:43.209Z,98423.05
2018-08-31T04:09:15.206Z,98431.81
2018-08-31T04:11:46.974Z,98421.05
2018-08-31T04:14:19.579Z,98420.83
2018-08-31T04:16:51.614Z,98416.45
2018-08-31T04:19:23.749Z,98427.70
2018-08-31T04:21:55.510Z,98432.58
2018-08-31T04:24:27.259Z,98428.09
2018-08-31T04:26:59.103Z,98439.20
2018-08-31T04:29:30.821Z,98445.34
2018-08-31T04:32:03.006Z,98446.80
2018-08-31T04:34:35.399Z,98452.13
2018-08-31T04:37:07.885Z,98443.47
2018-08-31T04:39:39.862Z,98447.50
2018-08-31T04:42:11.817Z,98456.82
2018-08-31T04:44:43.912Z,98453.83
2018-08-31T04:47:16.337Z,98459.16
2018-08-31T04:49:48.138Z,98458.20
2018-08-31T04:52:20.032Z,98460.38
2018-08-31T04:54:51.964Z,98458.66
2018-08-31T04:57:23.827Z,98458.16
2018-08-31T04:59:55.594Z,98459.16
2018-08-31T05:02:28.563Z,98452.20
2018-08-31T05:05:00.820Z,98451.70
2018-08-31T05:07:33.066Z,98445.55
2018-08-31T05:10:04.749Z,98441.86
2018-08-31T05:12:36.610Z,98441.06
2018-08-31T05:15:08.323Z,98438.23
2018-08-31T05:17:40.145Z,98446.88
2018-08-31T05:20:11.865Z,98442.19
2018-08-31T05:22:44.274Z,98436.03
2018-08-31T05:25:16.203Z,98437.86
2018-08-31T05:27:48.058Z,98432.87
2018-08-31T05:30:20.253Z,98431.54
2018-08-31T05:32:52.497Z,98427.88
2018-08-31T05:35:24.904Z,98428.70
2018-08-31T05:37:56.739Z,98425.70
2018-08-31T05:40:28.587Z,98430.20
2018-08-31T05:43:00.636Z,98428.86
2018-08-31T05:45:32.675Z,98423.70
2018-08-31T05:48:04.309Z,98428.03
2018-08-31T05:50:36.302Z,98418.05
2018-08-31T05:53:08.143Z,98418.05
2018-08-31T05:55:40.415Z,98420.88
2018-08-31T05:58:12.010Z,98421.38
2018-08-31T06:00:43.939Z,98412.19
2018-08-31T06:03:16.222Z,98417.84
2018-08-31T06:05:48.080Z,98420.50
2018-08-31T06:08:19.948Z,98421.50
2018-08-31T06:10:52.268Z,98423.87
2018-08-31T06:13:24.216Z,98418.38
2018-08-31T06:15:56.405Z,98416.37
2018-08-31T06:18:28.399Z,98422.53
2018-08-31T06:21:00.365Z,98415.22
2018-08-31T06:23:32.307Z,98418.22
2018-08-31T06:26:03.822Z,98415.89
2018-08-31T06:28:35.490Z,98420.55
2018-08-31T06:31:07.339Z,98419.22
2018-08-31T06:33:39.334Z,98415.87
2018-08-31T06:36:11.108Z,98409.56
2018-08-31T06:38:42.844Z,98410.94
2018-08-31T06:41:14.820Z,98408.91
2018-08-31T06:43:46.825Z,98409.23
2018-08-31T06:46:18.861Z,98405.23
2018-08-31T06:48:50.677Z,98407.24
2018-08-31T06:51:22.570Z,98412.57
2018-08-31T06:53:54.735Z,98412.57
2018-08-31T06:56:26.754Z,98409.91
2018-08-31T06:58:58.622Z,98396.59
2018-08-31T07:01:30.997Z,98397.42
2018-08-31T07:04:03.597Z,98395.80
2018-08-31T07:06:35.710Z,98406.95
2018-08-31T07:09:10.000Z,98401.80
2018-08-31T07:11:42.046Z,98397.80
2018-08-31T07:14:14.108Z,98393.93
2018-08-31T07:16:45.949Z,98399.59
2018-08-31T07:19:17.931Z,98400.59
2018-08-31T07:21:49.939Z,98399.59
2018-08-31T07:24:21.791Z,98392.42
2018-08-31T07:26:53.716Z,98389.44
2018-08-31T07:29:25.564Z,98388.27
2018-08-31T07:31:57.550Z,98392.26
2018-08-31T07:34:29.094Z,98393.26
2018-08-31T07:37:01.114Z,98384.27
2018-08-31T07:39:33.533Z,98378.61
2018-08-31T07:42:05.624Z,98373.79
2018-08-31T07:44:37.596Z,98377.78
2018-08-31T07:47:10.539Z,98372.62
2018-08-31T07:49:42.466Z,98370.95
2018-08-31T07:52:14.267Z,98367.30
2018-08-31T07:54:46.492Z,98365.30
2018-08-31T07:57:18.315Z,98370.63
2018-08-31T07:59:50.105Z,98363.47
2018-08-31T08:02:21.957Z,98360.63
2018-08-31T08:04:54.348Z,98357.97
2018-08-31T08:07:26.544Z,98361.80
2018-08-31T08:09:58.646Z,98363.13
2018-08-31T08:12:30.548Z,98366.29
2018-08-31T08:15:02.230Z,98367.45
2018-08-31T08:17:33.947Z,98374.11
2018-08-31T08:20:06.190Z,98370.91
2018-08-31T08:22:38.009Z,98368.25
2018-08-31T08:25:10.222Z,98366.91
2018-08-31T08:27:42.866Z,98362.42
2018-08-31T08:30:14.793Z,98356.80
2018-08-31T08:32:46.727Z,98365.59
2018-08-31T08:35:19.072Z,98359.76
2018-08-31T08:37:50.544Z,98349.61
2018-08-31T08:40:22.491Z,98358.62
2018-08-31T08:42:54.472Z,98349.33
2018-08-31T08:45:26.372Z,98354.31
2018-08-31T08:47:58.238Z,98349.61
2018-08-31T08:50:29.975Z,98344.28
2018-08-31T08:53:02.851Z,98333.13
2018-08-31T08:55:35.500Z,98334.34
2018-08-31T08:58:07.953Z,98342.50
2018-08-31T09:00:40.060Z,98335.02
2018-08-31T09:03:11.768Z,98341.50
2018-08-31T09:05:43.505Z,98336.34
2018-08-31T09:08:15.560Z,98347.32
2018-08-31T09:10:47.558Z,98344.66
2018-08-31T09:13:19.451Z,98344.66
2018-08-31T09:15:51.220Z,98335.67
2018-08-31T09:18:29.681Z,98335.84
2018-08-31T09:21:01.613Z,98331.02
2018-08-31T09:23:34.015Z,98324.53
2018-08-31T09:26:09.319Z,98326.02
2018-08-31T09:28:40.939Z,98320.70
2018-08-31T09:31:15.837Z,98312.05
2018-08-31T09:33:47.713Z,98308.06
2018-08-31T09:36:19.495Z,98306.22
2018-08-31T09:38:51.207Z,98298.74
2018-08-31T09:41:23.225Z,98294.75
2018-08-31T09:43:56.246Z,98295.07
2018-08-31T09:46:28.165Z,98293.24
2018-08-31T09:49:00.079Z,98292.41
2018-08-31T09:51:31.882Z,98291.91
2018-08-31T09:54:03.767Z,98287.74
2018-08-31T09:56:35.826Z,98286.08
2018-08-31T09:59:07.821Z,98278.95
2018-08-31T10:01:39.841Z,98291.08
2018-08-31T10:04:11.670Z,98296.23
2018-08-31T10:06:43.707Z,98293.56
2018-08-31T10:09:15.646Z,98296.73
2018-08-31T10:11:47.738Z,98303.39
2018-08-31T10:14:19.395Z,98300.07
2018-08-31T10:16:51.768Z,98293.91
2018-08-31T10:19:23.428Z,98293.41
2018-08-31T10:21:55.245Z,98284.42
2018-08-31T10:24:26.800Z,98279.93
2018-08-31T10:26:58.953Z,98284.75
2018-08-31T10:29:31.438Z,98276.94
2018-08-31T10:32:03.115Z,98274.25
2018-08-31T10:34:35.002Z,98267.45
2018-08-31T10:37:07.083Z,98261.30
2018-08-31T10:39:38.941Z,98255.46
2018-08-31T10:42:10.753Z,98237.83
2018-08-31T10:44:42.422Z,98232.00
2018-08-31T10:47:14.248Z,98232.50
2018-08-31T10:49:46.176Z,98231.00
2018-08-31T10:52:18.025Z,98231.00
2018-08-31T10:54:49.878Z,98226.17
2018-08-31T10:57:22.000Z,98226.67
2018-08-31T10:59:54.213Z,98226.85
2018-08-31T11:02:26.196Z,98224.84
2018-08-31T11:04:57.931Z,98228.84
2018-08-31T11:07:30.237Z,98232.83
2018-08-31T11:10:01.935Z,98221.17
2018-08-31T11:12:33.926Z,98222.18
2018-08-31T11:15:06.141Z,98219.14
2018-08-31T11:17:37.832Z,98221.17
2018-08-31T11:20:09.994Z,98223.13
2018-08-31T11:22:42.750Z,98213.63
2018-08-31T11:25:14.661Z,98205.82
2018-08-31T11:27:46.864Z,98203.87
2018-08-31T11:30:19.115Z,98207.54
2018-08-31T11:32:51.067Z,98216.68
2018-08-31T11:35:23.209Z,98210.85
2018-08-31T11:37:55.763Z,98205.53
2018-08-31T11:40:27.830Z,98203.16
2018-08-31T11:42:59.963Z,98204.48
2018-08-31T11:45:32.064Z,98195.08
2018-08-31T11:48:04.286Z,98198.15
2018-08-31T11:50:35.987Z,98196.91
2018-08-31T11:53:08.362Z,98191.23
2018-08-31T11:55:40.122Z,98201.56
2018-08-31T11:58:12.214Z,98199.22
2018-08-31T12:00:44.017Z,98203.05
2018-08-31T12:03:16.328Z,98198.55
2018-08-31T12:05:48.211Z,98201.20
2018-08-31T12:10:51.244Z,98197.21
2018-08-31T12:13:22.998Z,98195.50
2018-08-31T12:15:54.852Z,98189.23
2018-08-31T12:18:26.899Z,98187.92
2018-08-31T12:20:58.828Z,98194.25
2018-08-31T12:23:31.629Z,98192.56
2018-08-31T12:26:03.520Z,98186.59
2018-08-31T12:28:35.088Z,98190.58
2018-08-31T12:31:07.273Z,98183.60
2018-08-31T12:33:39.218Z,98190.41
2018-08-31T12:36:11.375Z,98182.48
2018-08-31T12:38:44.207Z,98190.58
2018-08-31T12:41:15.955Z,98188.63
2018-08-31T12:43:48.639Z,98182.92
2018-08-31T12:46:20.567Z,98195.91
2018-08-31T12:48:53.882Z,98197.72
2018-08-31T12:51:25.967Z,98198.22
2018-08-31T12:53:57.985Z,98200.05
2018-08-31T12:56:30.390Z,98203.22
2018-08-31T12:59:02.469Z,98204.55
2018-08-31T13:01:34.869Z,98203.87
2018-08-31T13:04:07.755Z,98210.52
2018-08-31T13:06:39.791Z,98208.87
2018-08-31T13:09:11.317Z,98215.20
2018-08-31T13:11:43.009Z,98217.03
2018-08-31T13:14:14.649Z,98219.37
2018-08-31T13:16:46.367Z,98215.88
2018-08-31T13:19:18.041Z,98227.68
2018-08-31T13:21:49.770Z,98232.17
2018-08-31T13:24:22.551Z,98235.84
2018-08-31T13:26:54.537Z,98238.33
2018-08-31T13:29:26.498Z,98245.48
2018-08-31T13:31:59.261Z,98249.16
2018-08-31T13:34:31.281Z,98250.48
2018-08-31T13:37:03.598Z,98246.49
2018-08-31T13:39:35.916Z,98267.80
2018-08-31T13:42:08.021Z,98265.45
2018-08-31T13:44:39.815Z,98266.13
2018-08-31T13:47:12.091Z,98270.45
2018-08-31T13:49:43.842Z,98276.61
2018-08-31T13:52:15.856Z,98276.11
2018-08-31T13:54:47.686Z,98275.45
2018-08-31T13:57:19.423Z,98283.77
2018-08-31T13:59:51.764Z,98279.27
2018-08-31T14:02:23.568Z,98287.77
2018-08-31T14:04:55.524Z,98289.47
2018-08-31T14:07:27.364Z,98298.74
2018-08-31T14:09:59.147Z,98299.74
2018-08-31T14:12:31.298Z,98303.41
2018-08-31T14:15:03.545Z,98312.94
2018-08-31T14:17:35.962Z,98321.75
2018-08-31T14:20:07.803Z,98327.38
2018-08-31T14:22:39.848Z,98334.36
2018-08-31T14:25:12.428Z,98336.39
2018-08-31T14:27:44.263Z,98341.72
2018-08-31T14:30:16.143Z,98339.35
2018-08-31T14:32:48.155Z,98346.01
2018-08-31T14:35:20.183Z,98349.00
2018-08-31T14:37:52.396Z,98345.84
2018-08-31T14:40:24.389Z,98350.33
2018-08-31T14:42:56.313Z,98359.98
2018-08-31T14:45:28.397Z,98358.31
2018-08-31T14:48:00.272Z,98361.31
2018-08-31T14:50:32.231Z,98363.97
2018-08-31T14:53:03.909Z,98365.98
2018-08-31T14:55:35.718Z,98376.13
2018-08-31T14:58:07.390Z,98376.45
2018-08-31T15:00:39.478Z,98372.96
2018-08-31T15:03:11.820Z,98374.30
2018-08-31T15:05:43.986Z,98375.50
2018-08-31T15:08:15.311Z,98373.66
2018-08-31T15:10:47.678Z,98377.83
2018-08-31T15:13:22.493Z,98376.33
2018-08-31T15:15:54.621Z,98376.95
2018-08-31T15:18:26.513Z,98373.62
2018-08-31T15:20:58.504Z,98371.13
2018-08-31T15:23:30.697Z,98372.29
2018-08-31T15:26:03.270Z,98373.62
2018-08-31T15:28:35.509Z,98382.94
2018-08-31T15:31:07.302Z,98383.77
2018-08-31T15:33:39.345Z,98390.92
2018-08-31T15:36:12.304Z,98385.14
2018-08-31T15:38:44.805Z,98387.81
2018-08-31T15:41:17.397Z,98390.64
2018-08-31T15:43:49.446Z,98383.48
2018-08-31T15:46:21.798Z,98388.81
2018-08-31T15:48:53.900Z,98387.98
2018-08-31T15:51:26.007Z,98389.81
2018-08-31T15:53:58.290Z,98391.31
2018-08-31T15:56:30.270Z,98391.97
2018-08-31T15:59:02.420Z,98389.66
2018-08-31T16:01:34.800Z,98401.92
2018-08-31T16:04:06.861Z,98394.97
2018-08-31T16:06:39.277Z,98392.80
2018-08-31T16:09:11.979Z,98393.93
2018-08-31T16:11:44.093Z,98397.12
2018-08-31T16:14:16.136Z,98394.97
2018-08-31T16:16:48.113Z,98400.46
2018-08-31T16:19:20.238Z,98389.81
2018-08-31T16:21:52.987Z,98393.98
2018-08-31T16:24:26.053Z,98395.64
2018-08-31T16:26:58.785Z,98402.63
2018-08-31T16:29:30.414Z,98400.96
2018-08-31T16:32:02.106Z,98397.30
2018-08-31T16:34:34.798Z,98397.30
2018-08-31T16:37:07.131Z,98396.80
2018-08-31T16:39:39.029Z,98389.66
2018-08-31T16:42:10.703Z,98389.98
2018-08-31T16:44:43.272Z,98394.30
2018-08-31T16:47:18.201Z,98394.63
2018-08-31T16:49:49.756Z,98394.30
2018-08-31T16:52:21.297Z,98390.64
2018-08-31T16:54:53.580Z,98390.97
2018-08-31T16:57:25.306Z,98393.30
2018-08-31T16:59:57.005Z,98386.98
2018-08-31T17:02:29.250Z,98380.66
2018-08-31T17:05:03.256Z,98380.99
2018-08-31T17:07:35.498Z,98380.70
2018-08-31T17:10:08.196Z,98376.67
2018-08-31T17:12:40.563Z,98374.01
2018-08-31T17:15:12.658Z,98374.51
2018-08-31T17:17:45.065Z,98370.69
2018-08-31T17:20:16.993Z,98372.02
2018-08-31T17:22:49.012Z,98366.02
2018-08-31T17:25:20.633Z,98371.34
2018-08-31T17:27:57.246Z,98370.34
2018-08-31T17:30:29.038Z,98364.36
2018-08-31T17:34:06.748Z,98370.06
2018-08-31T17:36:43.213Z,98369.86
2018-08-31T17:39:16.285Z,98369.69
2018-08-31T17:41:48.455Z,98365.19
2018-08-31T17:44:20.669Z,98365.52
2018-08-31T17:46:52.534Z,98356.05
2018-08-31T17:49:25.214Z,98356.38
2018-08-31T17:51:57.630Z,98351.38
2018-08-31T17:54:29.528Z,98356.38
2018-08-31T17:57:01.711Z,98349.05
2018-08-31T17:59:33.484Z,98347.39
2018-08-31T18:02:05.609Z,98350.72
2018-08-31T18:04:37.800Z,98351.05
2018-08-31T18:07:09.576Z,98351.38
2018-08-31T18:09:42.383Z,98351.22
2018-08-31T18:12:14.517Z,98352.55
2018-08-31T18:14:47.597Z,98347.10
2018-08-31T18:17:19.756Z,98350.55
2018-08-31T18:19:51.795Z,98353.04
2018-08-31T18:22:23.668Z,98351.53
2018-08-31T18:24:56.085Z,98349.22
2018-08-31T18:27:28.533Z,98343.06
2018-08-31T18:30:00.670Z,98339.40
2018-08-31T18:32:32.488Z,98331.58
2018-08-31T18:35:04.560Z,98329.75
2018-08-31T18:37:36.871Z,98330.08
2018-08-31T18:40:09.949Z,98317.45
2018-08-31T18:42:42.041Z,98318.77
2018-08-31T18:45:14.439Z,98317.27
2018-08-31T18:47:46.376Z,98327.42
2018-08-31T18:50:18.973Z,98325.93
2018-08-31T18:52:51.070Z,98322.48
2018-08-31T18:55:23.506Z,98338.73
2018-08-31T18:57:55.764Z,98332.79
2018-08-31T19:00:28.670Z,98336.45
2018-08-31T19:03:01.047Z,98334.42
2018-08-31T19:05:33.024Z,98333.80
2018-08-31T19:08:05.533Z,98330.95
2018-08-31T19:10:37.617Z,98339.74
2018-08-31T19:13:16.292Z,98336.91
2018-08-31T19:15:50.952Z,98326.77
2018-08-31T19:18:23.095Z,98312.12
2018-08-31T19:20:57.355Z,98299.81
2018-08-31T19:23:29.492Z,98297.15
2018-08-31T19:26:02.231Z,98300.84
2018-08-31T19:28:35.314Z,98309.95
2018-08-31T19:31:07.666Z,98317.11
2018-08-31T19:33:40.525Z,98310.79
2018-08-31T19:36:12.759Z,98307.00
2018-08-31T19:38:44.606Z,98305.67
2018-08-31T19:41:18.371Z,98304.84
2018-08-31T19:43:50.773Z,98303.51
2018-08-31T19:46:22.675Z,98299.52
2018-08-31T19:48:54.529Z,98302.47
2018-08-31T19:51:27.197Z,98293.36
2018-08-31T19:53:59.381Z,98299.02
2018-08-31T19:56:31.998Z,98302.47
2018-08-31T19:59:03.839Z,98307.50
2018-08-31T20:01:35.648Z,98307.67
2018-08-31T20:04:07.935Z,98300.84
2018-08-31T20:06:40.262Z,98301.34
2018-08-31T20:09:12.678Z,98291.20
2018-08-31T20:11:44.756Z,98287.20
2018-08-31T20:14:17.413Z,98283.21
2018-08-31T20:16:49.753Z,98285.55
2018-08-31T20:19:22.214Z,98273.56
2018-08-31T20:21:54.257Z,98275.57
2018-08-31T20:24:26.234Z,98278.56
2018-08-31T20:26:59.254Z,98279.89
2018-08-31T20:29:31.215Z,98282.55
2018-08-31T20:32:03.911Z,98287.88
2018-08-31T20:34:36.099Z,98288.38
2018-08-31T20:37:08.239Z,98295.87
2018-08-31T20:39:40.570Z,98299.53
2018-08-31T20:42:13.234Z,98307.84
2018-08-31T20:44:44.726Z,98316.50
2018-08-31T20:47:18.382Z,98322.16
2018-08-31T20:49:51.557Z,98324.48
2018-08-31T20:52:24.052Z,98327.48
2018-08-31T20:54:56.709Z,98322.16
2018-08-31T20:57:29.524Z,98324.16
2018-08-31T21:00:02.301Z,98324.48
2018-08-31T21:02:34.188Z,98315.34
2018-08-31T21:05:06.462Z,98297.09
2018-08-31T21:07:38.747Z,98301.23
2018-08-31T21:10:12.531Z,98294.58
2018-08-31T21:12:44.242Z,98298.58
2018-08-31T21:15:17.172Z,98299.20
2018-08-31T21:17:48.873Z,98292.92
2018-08-31T21:20:20.875Z,98297.09
2018-08-31T21:22:52.981Z,98296.26
2018-08-31T21:25:25.892Z,98281.80
2018-08-31T21:27:57.661Z,98277.13
2018-08-31T21:30:29.762Z,98274.46
2018-08-31T21:33:02.070Z,98279.41
2018-08-31T21:35:34.325Z,98280.23
2018-08-31T21:40:44.755Z,98279.11
2018-08-31T21:43:16.969Z,98287.93
2018-08-31T21:45:48.860Z,98286.06
2018-08-31T21:48:20.955Z,98291.77
2018-08-31T21:50:53.589Z,98292.27
2018-08-31T21:53:25.738Z,98293.42
2018-08-31T21:55:57.364Z,98304.24
2018-08-31T21:58:30.159Z,98297.59
2018-08-31T22:01:07.648Z,98297.41
2018-08-31T22:03:39.211Z,98303.23
2018-08-31T22:06:11.605Z,98307.41
2018-08-31T22:08:43.374Z,98314.56
2018-08-31T22:11:15.229Z,98317.22
2018-08-31T22:13:47.023Z,98312.40
2018-08-31T22:16:19.259Z,98305.74
2018-08-31T22:18:51.272Z,98309.91
2018-08-31T22:21:23.367Z,98308.58
2018-08-31T22:23:55.751Z,98315.73
2018-08-31T22:26:27.745Z,98312.90
2018-08-31T22:28:59.705Z,98316.89
2018-08-31T22:31:31.448Z,98312.73
2018-08-31T22:34:03.302Z,98310.23
2018-08-31T22:36:34.982Z,98309.56
2018-08-31T22:39:08.473Z,98307.58
2018-08-31T22:41:40.075Z,98302.25
2018-08-31T22:44:11.826Z,98307.25
2018-08-31T22:46:43.663Z,98300.92
2018-08-31T22:49:15.639Z,98294.44
2018-08-31T22:51:47.081Z,98290.98
2018-08-31T22:54:19.281Z,98289.65
2018-08-31T22:56:51.384Z,98292.31
2018-08-31T22:59:23.589Z,98294.14
2018-08-31T23:01:55.193Z,98294.14
2018-08-31T23:04:26.844Z,98298.64
2018-08-31T23:06:58.654Z,98296.65
2018-08-31T23:09:30.874Z,98292.66
2018-08-31T23:12:03.156Z,98292.98
2018-08-31T23:14:35.631Z,98287.66
2018-08-31T23:17:07.753Z,98292.66
2018-08-31T23:19:39.574Z,98294.31
2018-08-31T23:22:12.019Z,98296.30
2018-08-31T23:24:44.007Z,98306.97
2018-08-31T23:27:15.800Z,98310.13
2018-08-31T23:29:47.627Z,98328.25
2018-08-31T23:32:19.572Z,98328.91
2018-08-31T23:34:51.809Z,98348.22
2018-08-31T23:37:23.844Z,98353.20
2018-08-31T23:39:56.011Z,98364.84
2018-08-31T23:42:28.021Z,98375.99
2018-08-31T23:44:59.986Z,98380.66
2018-08-31T23:47:31.619Z,98388.80
2018-08-31T23:50:03.451Z,98392.30
2018-08-31T23:52:34.876Z,98379.48
2018-08-31T23:55:06.896Z,98373.20
2018-08-31T23:57:39.062Z,98374.70
